sensor_id;sensor_type;location;lat;lon;timestamp;P1;durP1;ratioP1;P2;durP2;ratioP2
56136;SDS011;42008;52.934;5.884;2022-09-17T00:00:59;18.87;;;3.40;;
56136;SDS011;42008;52.934;5.884;2022-09-17T00:03:25;21.57;;;3.90;;
56136;SDS011;42008;52.934;5.884;2022-09-17T00:06:03;18.90;;;3.40;;
56136;SDS011;42008;52.934;5.884;2022-09-17T00:08:29;20.20;;;3.70;;
56136;SDS011;42008;52.934;5.884;2022-09-17T00:10:55;21.57;;;3.50;;
56136;SDS011;42008;52.934;5.884;2022-09-17T00:13:20;20.17;;;3.47;;
56136;SDS011;42008;52.934;5.884;2022-09-17T00:15:46;17.57;;;3.13;;
56136;SDS011;42008;52.934;5.884;2022-09-17T00:18:13;21.23;;;3.00;;
56136;SDS011;42008;52.934;5.884;2022-09-17T00:20:39;20.27;;;2.87;;
56136;SDS011;42008;52.934;5.884;2022-09-17T00:23:06;18.90;;;3.33;;
56136;SDS011;42008;52.934;5.884;2022-09-17T00:25:33;17.17;;;3.10;;
56136;SDS011;42008;52.934;5.884;2022-09-17T00:28:02;16.97;;;3.20;;
56136;SDS011;42008;52.934;5.884;2022-09-17T00:30:28;19.20;;;3.93;;
56136;SDS011;42008;52.934;5.884;2022-09-17T00:32:53;23.57;;;3.83;;
56136;SDS011;42008;52.934;5.884;2022-09-17T00:35:21;17.20;;;3.10;;
56136;SDS011;42008;52.934;5.884;2022-09-17T00:37:50;20.73;;;3.53;;
56136;SDS011;42008;52.934;5.884;2022-09-17T00:40:16;14.60;;;3.10;;
56136;SDS011;42008;52.934;5.884;2022-09-17T00:42:42;20.70;;;3.00;;
56136;SDS011;42008;52.934;5.884;2022-09-17T00:45:09;21.70;;;3.33;;
56136;SDS011;42008;52.934;5.884;2022-09-17T00:47:40;25.63;;;3.80;;
56136;SDS011;42008;52.934;5.884;2022-09-17T00:50:20;21.53;;;3.83;;
56136;SDS011;42008;52.934;5.884;2022-09-17T00:52:59;20.73;;;3.40;;
56136;SDS011;42008;52.934;5.884;2022-09-17T00:55:30;23.10;;;3.57;;
56136;SDS011;42008;52.934;5.884;2022-09-17T00:58:00;17.60;;;4.00;;
56136;SDS011;42008;52.934;5.884;2022-09-17T01:00:30;17.90;;;3.37;;
56136;SDS011;42008;52.934;5.884;2022-09-17T01:02:56;19.70;;;3.10;;
56136;SDS011;42008;52.934;5.884;2022-09-17T01:17:13;17.97;;;3.27;;
56136;SDS011;42008;52.934;5.884;2022-09-17T01:27:55;18.13;;;2.73;;
56136;SDS011;42008;52.934;5.884;2022-09-17T01:33:14;10.98;;;2.28;;
56136;SDS011;42008;52.934;5.884;2022-09-17T01:47:19;14.73;;;2.40;;
56136;SDS011;42008;52.934;5.884;2022-09-17T01:49:49;12.87;;;2.20;;
56136;SDS011;42008;52.934;5.884;2022-09-17T01:52:20;11.97;;;2.03;;
56136;SDS011;42008;52.934;5.884;2022-09-17T01:54:49;14.30;;;2.60;;
56136;SDS011;42008;52.934;5.884;2022-09-17T01:57:21;13.87;;;2.20;;
56136;SDS011;42008;52.934;5.884;2022-09-17T01:59:54;18.43;;;2.50;;
56136;SDS011;42008;52.934;5.884;2022-09-17T02:02:33;14.23;;;2.30;;
56136;SDS011;42008;52.934;5.884;2022-09-17T02:07:41;13.37;;;2.73;;
56136;SDS011;42008;52.934;5.884;2022-09-17T02:10:12;13.70;;;2.40;;
56136;SDS011;42008;52.934;5.884;2022-09-17T02:12:43;14.53;;;3.00;;
56136;SDS011;42008;52.934;5.884;2022-09-17T02:15:14;15.73;;;2.43;;
56136;SDS011;42008;52.934;5.884;2022-09-17T02:17:48;22.93;;;3.20;;
56136;SDS011;42008;52.934;5.884;2022-09-17T02:20:29;15.23;;;2.30;;
56136;SDS011;42008;52.934;5.884;2022-09-17T02:23:11;12.07;;;2.43;;
56136;SDS011;42008;52.934;5.884;2022-09-17T02:25:51;15.20;;;2.37;;
56136;SDS011;42008;52.934;5.884;2022-09-17T02:28:26;16.20;;;2.22;;
56136;SDS011;42008;52.934;5.884;2022-09-17T02:30:59;19.17;;;3.13;;
56136;SDS011;42008;52.934;5.884;2022-09-17T02:33:25;15.37;;;2.80;;
56136;SDS011;42008;52.934;5.884;2022-09-17T02:35:51;17.07;;;2.90;;
56136;SDS011;42008;52.934;5.884;2022-09-17T02:38:21;19.73;;;3.00;;
56136;SDS011;42008;52.934;5.884;2022-09-17T02:40:52;17.37;;;3.17;;
56136;SDS011;42008;52.934;5.884;2022-09-17T02:51:52;18.93;;;3.07;;
56136;SDS011;42008;52.934;5.884;2022-09-17T02:54:51;14.20;;;2.80;;
56136;SDS011;42008;52.934;5.884;2022-09-17T02:57:44;18.70;;;3.57;;
56136;SDS011;42008;52.934;5.884;2022-09-17T03:00:31;14.40;;;2.17;;
56136;SDS011;42008;52.934;5.884;2022-09-17T03:02:58;15.27;;;2.47;;
56136;SDS011;42008;52.934;5.884;2022-09-17T03:05:43;13.30;;;2.60;;
56136;SDS011;42008;52.934;5.884;2022-09-17T03:08:11;20.83;;;3.17;;
56136;SDS011;42008;52.934;5.884;2022-09-17T03:10:38;18.23;;;3.00;;
56136;SDS011;42008;52.934;5.884;2022-09-17T03:13:04;18.60;;;3.10;;
56136;SDS011;42008;52.934;5.884;2022-09-17T03:15:30;21.07;;;4.10;;
56136;SDS011;42008;52.934;5.884;2022-09-17T03:17:56;21.43;;;3.10;;
56136;SDS011;42008;52.934;5.884;2022-09-17T03:20:21;17.40;;;3.47;;
56136;SDS011;42008;52.934;5.884;2022-09-17T03:22:47;16.83;;;2.70;;
56136;SDS011;42008;52.934;5.884;2022-09-17T03:25:13;16.20;;;3.20;;
56136;SDS011;42008;52.934;5.884;2022-09-17T03:27:38;18.27;;;2.87;;
56136;SDS011;42008;52.934;5.884;2022-09-17T03:30:04;18.53;;;3.10;;
56136;SDS011;42008;52.934;5.884;2022-09-17T03:32:31;25.93;;;4.53;;
56136;SDS011;42008;52.934;5.884;2022-09-17T03:34:57;17.10;;;2.80;;
56136;SDS011;42008;52.934;5.884;2022-09-17T03:37:22;19.13;;;2.90;;
56136;SDS011;42008;52.934;5.884;2022-09-17T03:39:48;16.03;;;2.93;;
56136;SDS011;42008;52.934;5.884;2022-09-17T03:42:13;21.60;;;3.57;;
56136;SDS011;42008;52.934;5.884;2022-09-17T03:44:39;15.90;;;2.80;;
56136;SDS011;42008;52.934;5.884;2022-09-17T03:47:05;15.47;;;2.83;;
56136;SDS011;42008;52.934;5.884;2022-09-17T03:49:30;16.63;;;2.80;;
56136;SDS011;42008;52.934;5.884;2022-09-17T03:51:56;19.57;;;3.10;;
56136;SDS011;42008;52.934;5.884;2022-09-17T03:54:22;17.53;;;3.30;;
56136;SDS011;42008;52.934;5.884;2022-09-17T03:56:47;16.33;;;2.60;;
56136;SDS011;42008;52.934;5.884;2022-09-17T03:59:13;18.60;;;3.07;;
56136;SDS011;42008;52.934;5.884;2022-09-17T04:01:39;22.47;;;3.50;;
56136;SDS011;42008;52.934;5.884;2022-09-17T04:04:04;19.67;;;3.80;;
56136;SDS011;42008;52.934;5.884;2022-09-17T04:06:30;22.07;;;3.13;;
56136;SDS011;42008;52.934;5.884;2022-09-17T04:08:56;13.43;;;2.43;;
56136;SDS011;42008;52.934;5.884;2022-09-17T04:11:22;15.87;;;2.70;;
56136;SDS011;42008;52.934;5.884;2022-09-17T04:13:47;20.27;;;3.23;;
56136;SDS011;42008;52.934;5.884;2022-09-17T04:16:13;16.97;;;2.73;;
56136;SDS011;42008;52.934;5.884;2022-09-17T04:18:39;14.40;;;2.70;;
56136;SDS011;42008;52.934;5.884;2022-09-17T04:21:04;18.10;;;2.40;;
56136;SDS011;42008;52.934;5.884;2022-09-17T04:23:30;18.30;;;2.97;;
56136;SDS011;42008;52.934;5.884;2022-09-17T04:25:56;14.50;;;2.30;;
56136;SDS011;42008;52.934;5.884;2022-09-17T04:28:22;15.83;;;2.87;;
56136;SDS011;42008;52.934;5.884;2022-09-17T04:30:47;12.40;;;2.53;;
56136;SDS011;42008;52.934;5.884;2022-09-17T04:33:13;11.17;;;2.20;;
56136;SDS011;42008;52.934;5.884;2022-09-17T04:35:39;13.47;;;2.17;;
56136;SDS011;42008;52.934;5.884;2022-09-17T04:38:05;12.53;;;2.10;;
56136;SDS011;42008;52.934;5.884;2022-09-17T04:40:31;13.13;;;2.03;;
56136;SDS011;42008;52.934;5.884;2022-09-17T04:42:57;14.33;;;2.60;;
56136;SDS011;42008;52.934;5.884;2022-09-17T04:45:23;13.67;;;2.23;;
56136;SDS011;42008;52.934;5.884;2022-09-17T04:47:49;15.07;;;2.17;;
56136;SDS011;42008;52.934;5.884;2022-09-17T04:50:18;9.63;;;2.10;;
56136;SDS011;42008;52.934;5.884;2022-09-17T04:52:44;11.30;;;2.10;;
56136;SDS011;42008;52.934;5.884;2022-09-17T04:55:11;10.87;;;2.07;;
56136;SDS011;42008;52.934;5.884;2022-09-17T04:57:37;10.83;;;2.00;;
56136;SDS011;42008;52.934;5.884;2022-09-17T05:00:04;14.80;;;2.23;;
56136;SDS011;42008;52.934;5.884;2022-09-17T05:02:33;13.07;;;2.40;;
56136;SDS011;42008;52.934;5.884;2022-09-17T05:04:59;11.00;;;1.93;;
56136;SDS011;42008;52.934;5.884;2022-09-17T05:07:25;17.60;;;2.60;;
56136;SDS011;42008;52.934;5.884;2022-09-17T05:09:50;10.83;;;2.00;;
56136;SDS011;42008;52.934;5.884;2022-09-17T05:12:16;14.80;;;2.23;;
56136;SDS011;42008;52.934;5.884;2022-09-17T05:14:41;13.30;;;2.57;;
56136;SDS011;42008;52.934;5.884;2022-09-17T05:17:07;14.17;;;3.50;;
56136;SDS011;42008;52.934;5.884;2022-09-17T05:19:32;17.97;;;2.63;;
56136;SDS011;42008;52.934;5.884;2022-09-17T05:21:58;17.40;;;2.83;;
56136;SDS011;42008;52.934;5.884;2022-09-17T05:24:23;21.13;;;2.73;;
56136;SDS011;42008;52.934;5.884;2022-09-17T05:26:49;20.13;;;2.80;;
56136;SDS011;42008;52.934;5.884;2022-09-17T05:29:15;15.10;;;2.90;;
56136;SDS011;42008;52.934;5.884;2022-09-17T05:31:40;16.30;;;2.97;;
56136;SDS011;42008;52.934;5.884;2022-09-17T05:34:06;22.63;;;2.80;;
56136;SDS011;42008;52.934;5.884;2022-09-17T05:36:32;14.90;;;3.23;;
56136;SDS011;42008;52.934;5.884;2022-09-17T05:38:58;17.63;;;3.00;;
56136;SDS011;42008;52.934;5.884;2022-09-17T05:41:24;19.30;;;2.70;;
56136;SDS011;42008;52.934;5.884;2022-09-17T05:43:49;13.20;;;2.27;;
56136;SDS011;42008;52.934;5.884;2022-09-17T05:46:15;16.17;;;2.77;;
56136;SDS011;42008;52.934;5.884;2022-09-17T05:48:40;25.87;;;3.30;;
56136;SDS011;42008;52.934;5.884;2022-09-17T05:51:07;15.37;;;2.63;;
56136;SDS011;42008;52.934;5.884;2022-09-17T05:53:33;14.77;;;2.53;;
56136;SDS011;42008;52.934;5.884;2022-09-17T05:55:58;15.60;;;2.43;;
56136;SDS011;42008;52.934;5.884;2022-09-17T05:58:24;13.17;;;2.00;;
56136;SDS011;42008;52.934;5.884;2022-09-17T06:00:51;13.97;;;2.03;;
56136;SDS011;42008;52.934;5.884;2022-09-17T06:03:17;10.03;;;2.50;;
56136;SDS011;42008;52.934;5.884;2022-09-17T06:05:54;7.97;;;1.50;;
56136;SDS011;42008;52.934;5.884;2022-09-17T06:08:22;10.10;;;2.03;;
56136;SDS011;42008;52.934;5.884;2022-09-17T06:10:49;13.17;;;2.50;;
56136;SDS011;42008;52.934;5.884;2022-09-17T06:13:15;13.17;;;1.70;;
56136;SDS011;42008;52.934;5.884;2022-09-17T06:15:41;9.70;;;2.10;;
56136;SDS011;42008;52.934;5.884;2022-09-17T06:18:07;9.37;;;1.60;;
56136;SDS011;42008;52.934;5.884;2022-09-17T06:20:32;8.83;;;1.40;;
56136;SDS011;42008;52.934;5.884;2022-09-17T06:22:58;9.93;;;1.50;;
56136;SDS011;42008;52.934;5.884;2022-09-17T06:25:24;6.77;;;1.27;;
56136;SDS011;42008;52.934;5.884;2022-09-17T06:27:50;6.33;;;1.20;;
56136;SDS011;42008;52.934;5.884;2022-09-17T06:30:16;8.37;;;1.57;;
56136;SDS011;42008;52.934;5.884;2022-09-17T06:32:41;9.33;;;1.67;;
56136;SDS011;42008;52.934;5.884;2022-09-17T06:35:07;5.90;;;1.40;;
56136;SDS011;42008;52.934;5.884;2022-09-17T06:37:33;11.80;;;1.70;;
56136;SDS011;42008;52.934;5.884;2022-09-17T06:40:00;10.63;;;1.60;;
56136;SDS011;42008;52.934;5.884;2022-09-17T06:42:26;6.70;;;1.10;;
56136;SDS011;42008;52.934;5.884;2022-09-17T06:44:55;6.83;;;1.30;;
56136;SDS011;42008;52.934;5.884;2022-09-17T06:47:23;9.90;;;1.60;;
56136;SDS011;42008;52.934;5.884;2022-09-17T06:49:49;10.10;;;1.77;;
56136;SDS011;42008;52.934;5.884;2022-09-17T06:52:15;9.50;;;1.80;;
56136;SDS011;42008;52.934;5.884;2022-09-17T06:54:41;6.60;;;1.30;;
56136;SDS011;42008;52.934;5.884;2022-09-17T06:57:06;8.70;;;1.90;;
56136;SDS011;42008;52.934;5.884;2022-09-17T06:59:32;12.33;;;2.03;;
56136;SDS011;42008;52.934;5.884;2022-09-17T07:01:58;10.13;;;1.73;;
56136;SDS011;42008;52.934;5.884;2022-09-17T07:04:23;10.33;;;2.20;;
56136;SDS011;42008;52.934;5.884;2022-09-17T07:06:49;13.70;;;2.10;;
56136;SDS011;42008;52.934;5.884;2022-09-17T07:09:14;6.67;;;1.50;;
56136;SDS011;42008;52.934;5.884;2022-09-17T07:11:40;14.03;;;2.00;;
56136;SDS011;42008;52.934;5.884;2022-09-17T07:14:05;11.17;;;1.80;;
56136;SDS011;42008;52.934;5.884;2022-09-17T07:16:31;11.77;;;2.30;;
56136;SDS011;42008;52.934;5.884;2022-09-17T07:19:00;8.87;;;1.60;;
56136;SDS011;42008;52.934;5.884;2022-09-17T07:21:27;10.70;;;2.10;;
56136;SDS011;42008;52.934;5.884;2022-09-17T07:23:52;14.07;;;2.33;;
56136;SDS011;42008;52.934;5.884;2022-09-17T07:26:18;10.63;;;1.77;;
56136;SDS011;42008;52.934;5.884;2022-09-17T07:28:43;11.53;;;1.67;;
56136;SDS011;42008;52.934;5.884;2022-09-17T07:31:10;7.37;;;1.30;;
56136;SDS011;42008;52.934;5.884;2022-09-17T07:33:36;8.97;;;1.60;;
56136;SDS011;42008;52.934;5.884;2022-09-17T07:36:04;9.93;;;1.43;;
56136;SDS011;42008;52.934;5.884;2022-09-17T07:38:32;11.67;;;1.80;;
56136;SDS011;42008;52.934;5.884;2022-09-17T07:43:37;10.63;;;2.07;;
56136;SDS011;42008;52.934;5.884;2022-09-17T07:46:03;12.13;;;2.50;;
56136;SDS011;42008;52.934;5.884;2022-09-17T07:48:30;12.40;;;2.57;;
56136;SDS011;42008;52.934;5.884;2022-09-17T07:50:56;10.60;;;1.50;;
56136;SDS011;42008;52.934;5.884;2022-09-17T07:53:22;5.43;;;1.37;;
56136;SDS011;42008;52.934;5.884;2022-09-17T07:55:51;8.07;;;1.93;;
56136;SDS011;42008;52.934;5.884;2022-09-17T07:58:17;6.00;;;1.27;;
56136;SDS011;42008;52.934;5.884;2022-09-17T08:00:43;12.37;;;1.83;;
56136;SDS011;42008;52.934;5.884;2022-09-17T08:03:09;9.10;;;1.87;;
56136;SDS011;42008;52.934;5.884;2022-09-17T08:05:34;10.17;;;1.93;;
56136;SDS011;42008;52.934;5.884;2022-09-17T08:08:00;11.73;;;2.63;;
56136;SDS011;42008;52.934;5.884;2022-09-17T08:10:25;11.47;;;1.90;;
56136;SDS011;42008;52.934;5.884;2022-09-17T08:12:55;12.43;;;1.87;;
56136;SDS011;42008;52.934;5.884;2022-09-17T08:15:22;10.53;;;2.00;;
56136;SDS011;42008;52.934;5.884;2022-09-17T08:17:49;9.07;;;1.57;;
56136;SDS011;42008;52.934;5.884;2022-09-17T08:20:15;10.57;;;1.90;;
56136;SDS011;42008;52.934;5.884;2022-09-17T08:22:42;13.70;;;2.10;;
56136;SDS011;42008;52.934;5.884;2022-09-17T08:25:08;12.07;;;2.20;;
56136;SDS011;42008;52.934;5.884;2022-09-17T08:27:34;9.77;;;1.83;;
56136;SDS011;42008;52.934;5.884;2022-09-17T08:30:00;9.77;;;1.63;;
56136;SDS011;42008;52.934;5.884;2022-09-17T08:32:27;11.00;;;2.00;;
56136;SDS011;42008;52.934;5.884;2022-09-17T08:34:53;13.93;;;2.50;;
56136;SDS011;42008;52.934;5.884;2022-09-17T08:37:19;9.33;;;1.90;;
56136;SDS011;42008;52.934;5.884;2022-09-17T08:39:45;11.07;;;1.90;;
56136;SDS011;42008;52.934;5.884;2022-09-17T08:42:13;8.93;;;1.67;;
56136;SDS011;42008;52.934;5.884;2022-09-17T08:44:47;15.20;;;2.40;;
56136;SDS011;42008;52.934;5.884;2022-09-17T08:47:24;9.40;;;1.77;;
56136;SDS011;42008;52.934;5.884;2022-09-17T08:49:54;11.30;;;1.70;;
56136;SDS011;42008;52.934;5.884;2022-09-17T08:52:29;9.40;;;1.70;;
56136;SDS011;42008;52.934;5.884;2022-09-17T09:00:16;11.80;;;1.90;;
56136;SDS011;42008;52.934;5.884;2022-09-17T09:02:54;13.27;;;2.50;;
56136;SDS011;42008;52.934;5.884;2022-09-17T09:05:44;11.37;;;1.73;;
56136;SDS011;42008;52.934;5.884;2022-09-17T09:11:05;12.13;;;2.70;;
56136;SDS011;42008;52.934;5.884;2022-09-17T09:13:39;14.67;;;2.97;;
56136;SDS011;42008;52.934;5.884;2022-09-17T09:16:14;12.27;;;1.73;;
56136;SDS011;42008;52.934;5.884;2022-09-17T09:18:50;16.87;;;2.77;;
56136;SDS011;42008;52.934;5.884;2022-09-17T09:21:27;14.53;;;2.23;;
56136;SDS011;42008;52.934;5.884;2022-09-17T09:26:47;11.18;;;1.95;;
56136;SDS011;42008;52.934;5.884;2022-09-17T09:35:18;9.47;;;2.00;;
56136;SDS011;42008;52.934;5.884;2022-09-17T09:42:59;9.67;;;1.20;;
56136;SDS011;42008;52.934;5.884;2022-09-17T09:45:34;6.83;;;1.20;;
56136;SDS011;42008;52.934;5.884;2022-09-17T09:48:15;11.03;;;1.90;;
56136;SDS011;42008;52.934;5.884;2022-09-17T09:58:57;7.33;;;2.00;;
56136;SDS011;42008;52.934;5.884;2022-09-17T10:01:26;13.73;;;2.33;;
56136;SDS011;42008;52.934;5.884;2022-09-17T10:03:53;10.13;;;1.80;;
56136;SDS011;42008;52.934;5.884;2022-09-17T10:06:22;6.53;;;1.30;;
56136;SDS011;42008;52.934;5.884;2022-09-17T10:11:21;6.77;;;1.23;;
56136;SDS011;42008;52.934;5.884;2022-09-17T10:13:51;8.60;;;1.60;;
56136;SDS011;42008;52.934;5.884;2022-09-17T10:16:24;7.40;;;1.73;;
56136;SDS011;42008;52.934;5.884;2022-09-17T10:24:02;9.47;;;1.53;;
56136;SDS011;42008;52.934;5.884;2022-09-17T10:26:34;8.00;;;1.95;;
56136;SDS011;42008;52.934;5.884;2022-09-17T10:29:04;9.63;;;1.87;;
56136;SDS011;42008;52.934;5.884;2022-09-17T10:31:48;9.07;;;1.60;;
56136;SDS011;42008;52.934;5.884;2022-09-17T10:34:19;11.37;;;2.03;;
56136;SDS011;42008;52.934;5.884;2022-09-17T10:36:46;11.73;;;1.80;;
56136;SDS011;42008;52.934;5.884;2022-09-17T10:41:57;11.63;;;2.00;;
56136;SDS011;42008;52.934;5.884;2022-09-17T10:44:34;10.93;;;1.60;;
56136;SDS011;42008;52.934;5.884;2022-09-17T10:47:02;8.83;;;1.70;;
56136;SDS011;42008;52.934;5.884;2022-09-17T11:00:24;8.80;;;1.50;;
56136;SDS011;42008;52.934;5.884;2022-09-17T11:08:48;4.33;;;0.83;;
56136;SDS011;42008;52.934;5.884;2022-09-17T11:11:28;3.07;;;0.87;;
56136;SDS011;42008;52.934;5.884;2022-09-17T11:14:05;4.83;;;1.30;;
56136;SDS011;42008;52.934;5.884;2022-09-17T11:16:59;3.63;;;1.10;;
56136;SDS011;42008;52.934;5.884;2022-09-17T11:19:33;5.43;;;1.13;;
56136;SDS011;42008;52.934;5.884;2022-09-17T11:25:07;4.57;;;1.10;;
56136;SDS011;42008;52.934;5.884;2022-09-17T11:33:18;9.03;;;1.77;;
56136;SDS011;42008;52.934;5.884;2022-09-17T11:35:50;10.67;;;2.30;;
56136;SDS011;42008;52.934;5.884;2022-09-17T11:41:03;17.13;;;3.00;;
56136;SDS011;42008;52.934;5.884;2022-09-17T11:44:09;12.33;;;2.30;;
56136;SDS011;42008;52.934;5.884;2022-09-17T11:47:08;13.03;;;2.67;;
56136;SDS011;42008;52.934;5.884;2022-09-17T11:49:41;11.40;;;2.33;;
56136;SDS011;42008;52.934;5.884;2022-09-17T11:52:26;10.67;;;2.77;;
56136;SDS011;42008;52.934;5.884;2022-09-17T11:57:43;16.33;;;2.60;;
56136;SDS011;42008;52.934;5.884;2022-09-17T12:00:12;15.33;;;2.37;;
56136;SDS011;42008;52.934;5.884;2022-09-17T12:02:50;13.40;;;2.65;;
56136;SDS011;42008;52.934;5.884;2022-09-17T12:05:22;16.13;;;2.97;;
56136;SDS011;42008;52.934;5.884;2022-09-17T12:07:55;12.13;;;2.37;;
56136;SDS011;42008;52.934;5.884;2022-09-17T12:15:34;13.47;;;2.80;;
56136;SDS011;42008;52.934;5.884;2022-09-17T12:20:50;10.27;;;2.70;;
56136;SDS011;42008;52.934;5.884;2022-09-17T12:23:22;18.10;;;2.70;;
56136;SDS011;42008;52.934;5.884;2022-09-17T12:29:03;13.17;;;3.10;;
56136;SDS011;42008;52.934;5.884;2022-09-17T12:34:47;22.53;;;4.03;;
56136;SDS011;42008;52.934;5.884;2022-09-17T12:37:21;18.17;;;4.50;;
56136;SDS011;42008;52.934;5.884;2022-09-17T12:40:02;18.50;;;3.20;;
56136;SDS011;42008;52.934;5.884;2022-09-17T12:51:08;13.60;;;2.30;;
56136;SDS011;42008;52.934;5.884;2022-09-17T12:56:24;15.87;;;2.80;;
56136;SDS011;42008;52.934;5.884;2022-09-17T12:59:15;11.57;;;2.37;;
56136;SDS011;42008;52.934;5.884;2022-09-17T13:10:32;19.63;;;3.47;;
56136;SDS011;42008;52.934;5.884;2022-09-17T13:13:36;10.03;;;2.50;;
56136;SDS011;42008;52.934;5.884;2022-09-17T13:19:05;13.23;;;2.30;;
56136;SDS011;42008;52.934;5.884;2022-09-17T13:26:57;7.27;;;1.50;;
56136;SDS011;42008;52.934;5.884;2022-09-17T13:32:40;8.60;;;1.70;;
56136;SDS011;42008;52.934;5.884;2022-09-17T13:42:50;6.83;;;1.20;;
56136;SDS011;42008;52.934;5.884;2022-09-17T13:45:30;3.97;;;1.00;;
56136;SDS011;42008;52.934;5.884;2022-09-17T13:50:46;8.93;;;1.30;;
56136;SDS011;42008;52.934;5.884;2022-09-17T13:55:44;7.57;;;1.40;;
56136;SDS011;42008;52.934;5.884;2022-09-17T13:58:29;5.70;;;1.30;;
56136;SDS011;42008;52.934;5.884;2022-09-17T14:01:09;11.17;;;1.57;;
56136;SDS011;42008;52.934;5.884;2022-09-17T14:21:40;9.20;;;1.80;;
56136;SDS011;42008;52.934;5.884;2022-09-17T14:24:31;7.43;;;1.40;;
56136;SDS011;42008;52.934;5.884;2022-09-17T14:38:02;8.23;;;1.73;;
56136;SDS011;42008;52.934;5.884;2022-09-17T14:40:28;10.93;;;1.77;;
56136;SDS011;42008;52.934;5.884;2022-09-17T14:42:58;11.47;;;2.03;;
56136;SDS011;42008;52.934;5.884;2022-09-17T14:45:28;8.00;;;1.90;;
56136;SDS011;42008;52.934;5.884;2022-09-17T14:50:40;9.10;;;1.90;;
56136;SDS011;42008;52.934;5.884;2022-09-17T14:53:06;8.60;;;1.80;;
56136;SDS011;42008;52.934;5.884;2022-09-17T14:55:32;10.47;;;1.90;;
56136;SDS011;42008;52.934;5.884;2022-09-17T14:58:03;8.47;;;2.03;;
56136;SDS011;42008;52.934;5.884;2022-09-17T15:00:32;9.90;;;1.83;;
56136;SDS011;42008;52.934;5.884;2022-09-17T15:02:59;10.63;;;2.20;;
56136;SDS011;42008;52.934;5.884;2022-09-17T15:05:35;11.47;;;2.47;;
56136;SDS011;42008;52.934;5.884;2022-09-17T15:10:35;12.97;;;2.70;;
56136;SDS011;42008;52.934;5.884;2022-09-17T15:13:13;9.13;;;3.00;;
56136;SDS011;42008;52.934;5.884;2022-09-17T15:15:52;14.03;;;2.77;;
56136;SDS011;42008;52.934;5.884;2022-09-17T15:18:21;19.27;;;2.90;;
56136;SDS011;42008;52.934;5.884;2022-09-17T15:20:56;12.67;;;2.47;;
56136;SDS011;42008;52.934;5.884;2022-09-17T15:23:24;18.10;;;3.23;;
56136;SDS011;42008;52.934;5.884;2022-09-17T15:25:53;14.67;;;2.63;;
56136;SDS011;42008;52.934;5.884;2022-09-17T15:28:26;17.80;;;3.27;;
56136;SDS011;42008;52.934;5.884;2022-09-17T15:30:57;15.90;;;3.20;;
56136;SDS011;42008;52.934;5.884;2022-09-17T15:33:23;18.33;;;3.63;;
56136;SDS011;42008;52.934;5.884;2022-09-17T15:36:06;13.70;;;2.70;;
56136;SDS011;42008;52.934;5.884;2022-09-17T15:38:39;11.27;;;2.40;;
56136;SDS011;42008;52.934;5.884;2022-09-17T15:41:48;11.10;;;2.40;;
56136;SDS011;42008;52.934;5.884;2022-09-17T15:44:06;10.90;;;2.13;;
56136;SDS011;42008;52.934;5.884;2022-09-17T15:46:32;11.83;;;3.00;;
56136;SDS011;42008;52.934;5.884;2022-09-17T15:48:58;10.20;;;2.10;;
56136;SDS011;42008;52.934;5.884;2022-09-17T15:53:53;10.77;;;2.00;;
56136;SDS011;42008;52.934;5.884;2022-09-17T15:56:27;14.60;;;2.37;;
56136;SDS011;42008;52.934;5.884;2022-09-17T16:04:06;7.40;;;2.00;;
56136;SDS011;42008;52.934;5.884;2022-09-17T16:12:04;10.93;;;2.17;;
56136;SDS011;42008;52.934;5.884;2022-09-17T16:14:30;9.97;;;2.23;;
56136;SDS011;42008;52.934;5.884;2022-09-17T16:16:55;16.40;;;2.77;;
56136;SDS011;42008;52.934;5.884;2022-09-17T16:19:23;12.23;;;2.37;;
56136;SDS011;42008;52.934;5.884;2022-09-17T16:21:49;9.23;;;2.30;;
56136;SDS011;42008;52.934;5.884;2022-09-17T16:24:15;12.83;;;2.37;;
56136;SDS011;42008;52.934;5.884;2022-09-17T16:26:40;11.80;;;2.43;;
56136;SDS011;42008;52.934;5.884;2022-09-17T16:29:09;11.23;;;2.23;;
56136;SDS011;42008;52.934;5.884;2022-09-17T16:31:38;11.00;;;1.90;;
56136;SDS011;42008;52.934;5.884;2022-09-17T16:34:04;11.63;;;2.30;;
56136;SDS011;42008;52.934;5.884;2022-09-17T16:36:30;13.53;;;2.30;;
56136;SDS011;42008;52.934;5.884;2022-09-17T16:38:56;10.03;;;2.20;;
56136;SDS011;42008;52.934;5.884;2022-09-17T16:41:22;11.60;;;2.30;;
56136;SDS011;42008;52.934;5.884;2022-09-17T16:43:48;13.90;;;2.63;;
56136;SDS011;42008;52.934;5.884;2022-09-17T16:46:13;15.20;;;2.73;;
56136;SDS011;42008;52.934;5.884;2022-09-17T16:48:39;16.80;;;3.67;;
56136;SDS011;42008;52.934;5.884;2022-09-17T16:51:10;14.23;;;2.13;;
56136;SDS011;42008;52.934;5.884;2022-09-17T16:53:36;11.07;;;2.00;;
56136;SDS011;42008;52.934;5.884;2022-09-17T16:56:09;11.17;;;2.40;;
56136;SDS011;42008;52.934;5.884;2022-09-17T16:58:36;14.30;;;2.33;;
56136;SDS011;42008;52.934;5.884;2022-09-17T17:01:05;13.63;;;2.63;;
56136;SDS011;42008;52.934;5.884;2022-09-17T17:03:32;11.77;;;2.00;;
56136;SDS011;42008;52.934;5.884;2022-09-17T17:05:57;11.40;;;2.10;;
56136;SDS011;42008;52.934;5.884;2022-09-17T17:08:23;13.83;;;2.57;;
56136;SDS011;42008;52.934;5.884;2022-09-17T17:10:48;16.20;;;2.23;;
56136;SDS011;42008;52.934;5.884;2022-09-17T17:13:14;8.57;;;1.47;;
56136;SDS011;42008;52.934;5.884;2022-09-17T17:15:40;7.20;;;1.30;;
56136;SDS011;42008;52.934;5.884;2022-09-17T17:18:05;10.63;;;1.90;;
56136;SDS011;42008;52.934;5.884;2022-09-17T17:20:33;10.57;;;1.93;;
56136;SDS011;42008;52.934;5.884;2022-09-17T17:23:00;13.60;;;1.83;;
56136;SDS011;42008;52.934;5.884;2022-09-17T17:25:25;12.93;;;3.00;;
56136;SDS011;42008;52.934;5.884;2022-09-17T17:27:51;11.47;;;1.70;;
56136;SDS011;42008;52.934;5.884;2022-09-17T17:30:17;10.90;;;1.93;;
56136;SDS011;42008;52.934;5.884;2022-09-17T17:32:43;12.47;;;2.23;;
56136;SDS011;42008;52.934;5.884;2022-09-17T17:35:12;10.53;;;1.80;;
56136;SDS011;42008;52.934;5.884;2022-09-17T17:37:38;13.07;;;2.20;;
56136;SDS011;42008;52.934;5.884;2022-09-17T17:40:03;13.97;;;2.30;;
56136;SDS011;42008;52.934;5.884;2022-09-17T17:42:33;9.00;;;1.90;;
56136;SDS011;42008;52.934;5.884;2022-09-17T17:45:02;10.20;;;1.57;;
56136;SDS011;42008;52.934;5.884;2022-09-17T17:47:29;11.57;;;1.80;;
56136;SDS011;42008;52.934;5.884;2022-09-17T17:49:54;14.17;;;2.33;;
56136;SDS011;42008;52.934;5.884;2022-09-17T17:52:20;11.50;;;2.00;;
56136;SDS011;42008;52.934;5.884;2022-09-17T17:54:45;17.30;;;2.17;;
56136;SDS011;42008;52.934;5.884;2022-09-17T17:57:11;11.03;;;2.13;;
56136;SDS011;42008;52.934;5.884;2022-09-17T17:59:36;13.77;;;2.27;;
56136;SDS011;42008;52.934;5.884;2022-09-17T18:02:02;9.73;;;2.00;;
56136;SDS011;42008;52.934;5.884;2022-09-17T18:04:28;8.73;;;2.20;;
56136;SDS011;42008;52.934;5.884;2022-09-17T18:06:53;15.60;;;2.17;;
56136;SDS011;42008;52.934;5.884;2022-09-17T18:09:19;13.03;;;2.30;;
56136;SDS011;42008;52.934;5.884;2022-09-17T18:11:44;10.77;;;2.00;;
56136;SDS011;42008;52.934;5.884;2022-09-17T18:14:13;9.37;;;1.70;;
56136;SDS011;42008;52.934;5.884;2022-09-17T18:16:39;10.73;;;2.30;;
56136;SDS011;42008;52.934;5.884;2022-09-17T18:19:04;9.97;;;2.03;;
56136;SDS011;42008;52.934;5.884;2022-09-17T18:21:30;9.70;;;1.87;;
56136;SDS011;42008;52.934;5.884;2022-09-17T18:23:56;8.27;;;2.33;;
56136;SDS011;42008;52.934;5.884;2022-09-17T18:26:22;6.53;;;1.33;;
56136;SDS011;42008;52.934;5.884;2022-09-17T18:28:50;7.83;;;1.60;;
56136;SDS011;42008;52.934;5.884;2022-09-17T18:31:24;9.70;;;1.27;;
56136;SDS011;42008;52.934;5.884;2022-09-17T18:33:54;9.47;;;1.70;;
56136;SDS011;42008;52.934;5.884;2022-09-17T18:36:24;9.67;;;1.80;;